sensor_id;sensor_type;location;lat;lon;timestamp;pressure;altitude;pressure_sealevel;temperature;humidity
21359;BME280;13506;50.852;20.632;2023-05-28T00:02:01;98856.34;;;9.08;58.25
21359;BME280;13506;50.852;20.632;2023-05-28T00:04:29;98857.94;;;9.10;58.35
21359;BME280;13506;50.852;20.632;2023-05-28T00:06:57;98859.78;;;9.08;58.35
21359;BME280;13506;50.852;20.632;2023-05-28T00:09:25;98856.63;;;9.03;58.49
21359;BME280;13506;50.852;20.632;2023-05-28T00:11:55;98860.16;;;9.02;59.41
21359;BME280;13506;50.852;20.632;2023-05-28T00:14:23;98853.34;;;9.00;59.23
21359;BME280;13506;50.852;20.632;2023-05-28T00:16:51;98854.19;;;9.00;58.72
21359;BME280;13506;50.852;20.632;2023-05-28T00:19:19;98855.28;;;8.96;58.81
21359;BME280;13506;50.852;20.632;2023-05-28T00:21:48;98851.00;;;8.95;59.43
21359;BME280;13506;50.852;20.632;2023-05-28T00:24:17;98851.00;;;8.95;59.00
21359;BME280;13506;50.852;20.632;2023-05-28T00:26:45;98842.44;;;8.93;58.71
21359;BME280;13506;50.852;20.632;2023-05-28T00:29:14;98841.59;;;8.92;58.95
21359;BME280;13506;50.852;20.632;2023-05-28T00:31:42;98840.72;;;8.92;59.28
21359;BME280;13506;50.852;20.632;2023-05-28T00:34:10;98843.44;;;8.90;59.72
21359;BME280;13506;50.852;20.632;2023-05-28T00:36:38;98842.78;;;8.87;59.32
21359;BME280;13506;50.852;20.632;2023-05-28T00:39:06;98846.69;;;8.80;59.54
21359;BME280;13506;50.852;20.632;2023-05-28T00:41:34;98836.25;;;8.80;59.64
21359;BME280;13506;50.852;20.632;2023-05-28T00:44:03;98845.06;;;8.77;59.62
21359;BME280;13506;50.852;20.632;2023-05-28T00:46:34;98839.34;;;8.70;59.74
21359;BME280;13506;50.852;20.632;2023-05-28T00:49:02;98843.81;;;8.68;59.72
21359;BME280;13506;50.852;20.632;2023-05-28T00:51:32;98840.44;;;8.66;59.31
21359;BME280;13506;50.852;20.632;2023-05-28T00:54:02;98840.63;;;8.63;59.12
21359;BME280;13506;50.852;20.632;2023-05-28T00:56:30;98837.00;;;8.66;59.79
21359;BME280;13506;50.852;20.632;2023-05-28T00:58:59;98843.31;;;8.62;60.27
21359;BME280;13506;50.852;20.632;2023-05-28T01:01:29;98833.16;;;8.57;60.07
21359;BME280;13506;50.852;20.632;2023-05-28T01:03:59;98823.81;;;8.53;60.18
21359;BME280;13506;50.852;20.632;2023-05-28T01:06:27;98834.25;;;8.53;60.44
21359;BME280;13506;50.852;20.632;2023-05-28T01:08:57;98829.31;;;8.48;60.12
21359;BME280;13506;50.852;20.632;2023-05-28T01:11:25;98826.69;;;8.48;60.23
21359;BME280;13506;50.852;20.632;2023-05-28T01:13:55;98823.41;;;8.45;60.58
21359;BME280;13506;50.852;20.632;2023-05-28T01:16:23;98833.84;;;8.45;60.67
21359;BME280;13506;50.852;20.632;2023-05-28T01:18:54;98824.50;;;8.41;60.77
21359;BME280;13506;50.852;20.632;2023-05-28T01:21:26;98816.75;;;8.39;60.74
21359;BME280;13506;50.852;20.632;2023-05-28T01:23:58;98827.34;;;8.36;60.63
21359;BME280;13506;50.852;20.632;2023-05-28T01:26:27;98822.22;;;8.35;60.62
21359;BME280;13506;50.852;20.632;2023-05-28T01:28:57;98806.75;;;8.31;60.75
21359;BME280;13506;50.852;20.632;2023-05-28T01:31:25;98805.72;;;8.34;60.66
21359;BME280;13506;50.852;20.632;2023-05-28T01:33:54;98811.84;;;8.33;61.17
21359;BME280;13506;50.852;20.632;2023-05-28T01:36:25;98802.44;;;8.30;60.77
21359;BME280;13506;50.852;20.632;2023-05-28T01:39:00;98802.63;;;8.27;60.86
21359;BME280;13506;50.852;20.632;2023-05-28T01:41:30;98800.94;;;8.26;60.96
21359;BME280;13506;50.852;20.632;2023-05-28T01:44:00;98803.53;;;8.26;61.47
21359;BME280;13506;50.852;20.632;2023-05-28T01:46:29;98806.16;;;8.26;61.46
21359;BME280;13506;50.852;20.632;2023-05-28T01:48:58;98808.94;;;8.23;61.88
21359;BME280;13506;50.852;20.632;2023-05-28T01:51:26;98801.28;;;8.20;61.81
21359;BME280;13506;50.852;20.632;2023-05-28T01:53:55;98799.59;;;8.19;62.08
21359;BME280;13506;50.852;20.632;2023-05-28T01:56:24;98809.19;;;8.19;61.52
21359;BME280;13506;50.852;20.632;2023-05-28T01:58:52;98802.47;;;8.15;61.70
21359;BME280;13506;50.852;20.632;2023-05-28T02:01:25;98785.41;;;8.09;61.60
21359;BME280;13506;50.852;20.632;2023-05-28T02:03:56;98800.03;;;8.11;61.62
21359;BME280;13506;50.852;20.632;2023-05-28T02:06:26;98794.16;;;8.08;61.62
21359;BME280;13506;50.852;20.632;2023-05-28T02:08:55;98800.47;;;8.04;61.43
21359;BME280;13506;50.852;20.632;2023-05-28T02:11:24;98797.09;;;8.02;61.69
21359;BME280;13506;50.852;20.632;2023-05-28T02:13:55;98803.47;;;7.96;61.63
21359;BME280;13506;50.852;20.632;2023-05-28T02:16:24;98798.50;;;7.91;61.96
21359;BME280;13506;50.852;20.632;2023-05-28T02:18:55;98802.53;;;7.81;60.72
21359;BME280;13506;50.852;20.632;2023-05-28T02:21:24;98803.44;;;7.64;61.57
21359;BME280;13506;50.852;20.632;2023-05-28T02:23:52;98796.75;;;7.76;61.34
21359;BME280;13506;50.852;20.632;2023-05-28T02:26:21;98797.72;;;7.74;62.16
21359;BME280;13506;50.852;20.632;2023-05-28T02:28:51;98791.25;;;7.65;61.50
21359;BME280;13506;50.852;20.632;2023-05-28T02:31:19;98802.53;;;7.32;62.51
21359;BME280;13506;50.852;20.632;2023-05-28T02:33:47;98791.31;;;7.47;62.10
21359;BME280;13506;50.852;20.632;2023-05-28T02:36:16;98795.16;;;7.40;63.12
21359;BME280;13506;50.852;20.632;2023-05-28T02:38:44;98791.03;;;7.36;63.32
21359;BME280;13506;50.852;20.632;2023-05-28T02:41:13;98796.38;;;7.33;63.38
21359;BME280;13506;50.852;20.632;2023-05-28T02:43:46;98790.53;;;6.95;64.93
21359;BME280;13506;50.852;20.632;2023-05-28T02:46:16;98789.84;;;7.08;64.55
21359;BME280;13506;50.852;20.632;2023-05-28T02:48:45;98796.56;;;6.78;65.32
21359;BME280;13506;50.852;20.632;2023-05-28T02:51:15;98802.25;;;6.86;64.75
21359;BME280;13506;50.852;20.632;2023-05-28T02:53:58;98795.81;;;6.93;65.69
21359;BME280;13506;50.852;20.632;2023-05-28T02:56:26;98799.81;;;6.83;66.00
21359;BME280;13506;50.852;20.632;2023-05-28T02:58:55;98798.50;;;6.92;66.07
21359;BME280;13506;50.852;20.632;2023-05-28T03:01:24;98799.72;;;6.84;66.90
21359;BME280;13506;50.852;20.632;2023-05-28T03:03:53;98800.16;;;6.75;66.98
21359;BME280;13506;50.852;20.632;2023-05-28T03:06:22;98789.47;;;6.81;66.79
21359;BME280;13506;50.852;20.632;2023-05-28T03:08:54;98789.44;;;6.64;67.46
21359;BME280;13506;50.852;20.632;2023-05-28T03:11:23;98793.78;;;6.63;67.53
21359;BME280;13506;50.852;20.632;2023-05-28T03:13:51;98795.94;;;6.73;67.68
21359;BME280;13506;50.852;20.632;2023-05-28T03:16:19;98785.50;;;6.55;67.74
21359;BME280;13506;50.852;20.632;2023-05-28T03:18:50;75766.03;;;6.67;67.74
21359;BME280;13506;50.852;20.632;2023-05-28T03:21:19;98791.09;;;6.47;68.54
21359;BME280;13506;50.852;20.632;2023-05-28T03:23:47;98784.38;;;6.61;68.14
21359;BME280;13506;50.852;20.632;2023-05-28T03:26:29;98778.06;;;6.66;67.81
21359;BME280;13506;50.852;20.632;2023-05-28T03:28:58;98795.47;;;6.64;67.51
21359;BME280;13506;50.852;20.632;2023-05-28T03:31:55;98789.97;;;6.71;67.43
21359;BME280;13506;50.852;20.632;2023-05-28T03:34:25;98788.31;;;6.87;66.77
21359;BME280;13506;50.852;20.632;2023-05-28T03:36:53;98774.78;;;6.98;66.56
21359;BME280;13506;50.852;20.632;2023-05-28T03:39:21;98780.56;;;7.20;66.37
21359;BME280;13506;50.852;20.632;2023-05-28T03:41:51;98775.28;;;7.22;66.45
21359;BME280;13506;50.852;20.632;2023-05-28T03:44:21;98782.03;;;7.26;65.27
21359;BME280;13506;50.852;20.632;2023-05-28T03:46:49;98780.81;;;7.16;65.66
21359;BME280;13506;50.852;20.632;2023-05-28T03:49:17;98780.75;;;7.33;65.11
21359;BME280;13506;50.852;20.632;2023-05-28T03:51:46;98788.56;;;7.33;65.42
21359;BME280;13506;50.852;20.632;2023-05-28T03:54:15;98779.94;;;7.33;65.17
21359;BME280;13506;50.852;20.632;2023-05-28T03:56:45;98786.41;;;7.41;64.77
21359;BME280;13506;50.852;20.632;2023-05-28T03:59:13;98792.47;;;7.42;65.00
21359;BME280;13506;50.852;20.632;2023-05-28T04:01:41;98787.09;;;7.45;64.59
21359;BME280;13506;50.852;20.632;2023-05-28T04:04:11;98786.06;;;7.32;64.91
21359;BME280;13506;50.852;20.632;2023-05-28T04:06:39;98784.25;;;7.49;64.94
21359;BME280;13506;50.852;20.632;2023-05-28T04:09:09;98785.38;;;7.61;64.75
21359;BME280;13506;50.852;20.632;2023-05-28T04:11:37;98779.81;;;7.67;64.30
21359;BME280;13506;50.852;20.632;2023-05-28T04:14:12;98783.53;;;7.63;64.11
21359;BME280;13506;50.852;20.632;2023-05-28T04:16:40;98782.44;;;7.67;64.62
21359;BME280;13506;50.852;20.632;2023-05-28T04:19:08;98771.84;;;7.86;65.07
21359;BME280;13506;50.852;20.632;2023-05-28T04:21:36;98766.66;;;7.86;65.33
21359;BME280;13506;50.852;20.632;2023-05-28T04:24:05;98774.56;;;8.01;64.83
21359;BME280;13506;50.852;20.632;2023-05-28T04:26:34;98772.56;;;8.06;64.13
21359;BME280;13506;50.852;20.632;2023-05-28T04:29:04;98771.28;;;8.13;63.97
21359;BME280;13506;50.852;20.632;2023-05-28T04:31:33;98773.53;;;8.19;64.57
21359;BME280;13506;50.852;20.632;2023-05-28T04:34:02;98762.44;;;8.31;64.59
21359;BME280;13506;50.852;20.632;2023-05-28T04:36:31;98773.44;;;8.52;64.62
21359;BME280;13506;50.852;20.632;2023-05-28T04:39:00;98761.72;;;8.60;63.62
21359;BME280;13506;50.852;20.632;2023-05-28T04:41:31;98765.84;;;8.64;64.61
21359;BME280;13506;50.852;20.632;2023-05-28T04:44:01;98770.13;;;8.65;63.61
21359;BME280;13506;50.852;20.632;2023-05-28T04:46:29;98767.06;;;8.72;63.65
21359;BME280;13506;50.852;20.632;2023-05-28T04:48:59;98771.19;;;8.77;63.57
21359;BME280;13506;50.852;20.632;2023-05-28T04:51:27;98770.28;;;8.78;64.18
21359;BME280;13506;50.852;20.632;2023-05-28T04:53:55;98776.75;;;8.70;64.69
21359;BME280;13506;50.852;20.632;2023-05-28T04:56:23;98777.97;;;8.79;63.71
21359;BME280;13506;50.852;20.632;2023-05-28T04:58:52;98761.06;;;9.01;64.02
21359;BME280;13506;50.852;20.632;2023-05-28T05:01:21;98770.72;;;9.29;63.48
21359;BME280;13506;50.852;20.632;2023-05-28T05:03:52;98774.97;;;9.16;62.63
21359;BME280;13506;50.852;20.632;2023-05-28T05:06:20;98768.50;;;9.37;62.75
21359;BME280;13506;50.852;20.632;2023-05-28T05:08:48;98767.91;;;9.46;62.17
21359;BME280;13506;50.852;20.632;2023-05-28T05:11:16;98781.53;;;9.66;60.84
21359;BME280;13506;50.852;20.632;2023-05-28T05:13:45;98782.94;;;9.57;61.05
21359;BME280;13506;50.852;20.632;2023-05-28T05:16:13;98790.09;;;9.53;60.99
21359;BME280;13506;50.852;20.632;2023-05-28T05:18:43;98782.94;;;9.43;61.25
21359;BME280;13506;50.852;20.632;2023-05-28T05:21:11;98781.16;;;9.86;60.82
21359;BME280;13506;50.852;20.632;2023-05-28T05:23:40;98782.25;;;10.11;61.39
21359;BME280;13506;50.852;20.632;2023-05-28T05:26:08;98784.84;;;10.11;59.81
21359;BME280;13506;50.852;20.632;2023-05-28T05:28:39;98785.97;;;10.34;58.96
21359;BME280;13506;50.852;20.632;2023-05-28T05:31:08;98795.28;;;10.65;58.54
21359;BME280;13506;50.852;20.632;2023-05-28T05:33:39;98786.44;;;10.81;57.34
21359;BME280;13506;50.852;20.632;2023-05-28T05:36:22;98786.47;;;10.93;56.62
21359;BME280;13506;50.852;20.632;2023-05-28T05:39:08;98777.81;;;11.19;58.12
21359;BME280;13506;50.852;20.632;2023-05-28T05:41:55;98770.06;;;11.55;57.50
21359;BME280;13506;50.852;20.632;2023-05-28T05:44:29;98769.25;;;11.42;56.23
21359;BME280;13506;50.852;20.632;2023-05-28T05:46:58;98765.97;;;11.51;55.16
21359;BME280;13506;50.852;20.632;2023-05-28T05:49:27;98770.88;;;11.69;56.17
21359;BME280;13506;50.852;20.632;2023-05-28T05:51:56;98766.16;;;12.11;55.58
21359;BME280;13506;50.852;20.632;2023-05-28T05:54:25;98757.72;;;12.18;53.25
21359;BME280;13506;50.852;20.632;2023-05-28T05:56:53;98749.72;;;12.20;54.58
21359;BME280;13506;50.852;20.632;2023-05-28T05:59:23;98750.38;;;12.48;54.13
21359;BME280;13506;50.852;20.632;2023-05-28T06:01:51;98753.41;;;12.54;52.81
21359;BME280;13506;50.852;20.632;2023-05-28T06:04:19;98748.91;;;12.68;52.47
21359;BME280;13506;50.852;20.632;2023-05-28T06:07:23;98757.44;;;12.58;53.77
21359;BME280;13506;50.852;20.632;2023-05-28T06:09:52;98758.50;;;12.80;54.43
21359;BME280;13506;50.852;20.632;2023-05-28T06:12:24;98753.63;;;13.09;52.38
21359;BME280;13506;50.852;20.632;2023-05-28T06:14:52;98760.34;;;13.13;53.53
21359;BME280;13506;50.852;20.632;2023-05-28T06:17:22;98759.69;;;13.34;53.30
21359;BME280;13506;50.852;20.632;2023-05-28T06:19:50;98759.44;;;13.59;52.90
21359;BME280;13506;50.852;20.632;2023-05-28T06:22:19;98764.09;;;13.67;51.69
21359;BME280;13506;50.852;20.632;2023-05-28T06:24:49;98770.66;;;13.73;51.62
21359;BME280;13506;50.852;20.632;2023-05-28T06:27:19;98765.66;;;13.58;51.21
21359;BME280;13506;50.852;20.632;2023-05-28T06:29:48;98770.56;;;13.63;51.54
21359;BME280;13506;50.852;20.632;2023-05-28T06:32:17;98771.38;;;13.75;51.09
21359;BME280;13506;50.852;20.632;2023-05-28T06:34:45;98778.66;;;13.83;49.90
21359;BME280;13506;50.852;20.632;2023-05-28T06:37:15;98773.63;;;14.02;50.16
21359;BME280;13506;50.852;20.632;2023-05-28T06:39:42;98773.06;;;14.31;50.29
21359;BME280;13506;50.852;20.632;2023-05-28T06:42:12;98776.53;;;14.75;50.61
21359;BME280;13506;50.852;20.632;2023-05-28T06:44:53;98773.50;;;14.79;48.62
21359;BME280;13506;50.852;20.632;2023-05-28T06:47:21;98772.53;;;15.01;49.24
21359;BME280;13506;50.852;20.632;2023-05-28T06:49:50;98765.81;;;15.30;47.06
21359;BME280;13506;50.852;20.632;2023-05-28T06:52:19;98768.44;;;15.60;47.12
21359;BME280;13506;50.852;20.632;2023-05-28T06:54:49;98772.38;;;15.66;46.98
21359;BME280;13506;50.852;20.632;2023-05-28T06:57:19;98776.34;;;15.91;46.31
21359;BME280;13506;50.852;20.632;2023-05-28T07:00:26;98772.19;;;15.98;45.13
21359;BME280;13506;50.852;20.632;2023-05-28T07:03:26;98767.44;;;15.52;43.80
21359;BME280;13506;50.852;20.632;2023-05-28T07:06:08;98767.22;;;15.13;44.87
21359;BME280;13506;50.852;20.632;2023-05-28T07:08:38;98756.50;;;15.56;46.06
21359;BME280;13506;50.852;20.632;2023-05-28T07:11:10;98745.53;;;16.01;44.02
21359;BME280;13506;50.852;20.632;2023-05-28T07:13:41;98751.72;;;16.31;45.31
21359;BME280;13506;50.852;20.632;2023-05-28T07:16:09;98751.16;;;16.67;44.78
21359;BME280;13506;50.852;20.632;2023-05-28T07:18:38;98746.69;;;16.87;42.73
21359;BME280;13506;50.852;20.632;2023-05-28T07:21:07;98748.34;;;16.88;42.16
21359;BME280;13506;50.852;20.632;2023-05-28T07:23:42;98744.88;;;16.97;41.69
21359;BME280;13506;50.852;20.632;2023-05-28T07:26:10;98748.31;;;17.27;41.52
21359;BME280;13506;50.852;20.632;2023-05-28T07:28:40;98754.00;;;17.22;41.55
21359;BME280;13506;50.852;20.632;2023-05-28T07:31:08;98745.00;;;17.52;42.75
21359;BME280;13506;50.852;20.632;2023-05-28T07:33:37;98747.25;;;17.75;41.51
21359;BME280;13506;50.852;20.632;2023-05-28T07:36:05;98749.88;;;17.75;39.03
21359;BME280;13506;50.852;20.632;2023-05-28T07:38:36;98745.28;;;17.77;39.87
21359;BME280;13506;50.852;20.632;2023-05-28T07:41:04;98735.91;;;17.92;37.88
21359;BME280;13506;50.852;20.632;2023-05-28T07:43:47;98746.88;;;17.97;37.58
21359;BME280;13506;50.852;20.632;2023-05-28T07:46:21;98734.69;;;17.77;36.91
21359;BME280;13506;50.852;20.632;2023-05-28T07:48:53;98750.09;;;17.91;36.05
21359;BME280;13506;50.852;20.632;2023-05-28T07:51:40;98739.03;;;17.50;35.83
21359;BME280;13506;50.852;20.632;2023-05-28T07:54:17;98736.81;;;17.73;37.17
21359;BME280;13506;50.852;20.632;2023-05-28T07:56:46;98735.38;;;17.79;36.82
21359;BME280;13506;50.852;20.632;2023-05-28T07:59:22;98734.22;;;17.91;36.67
21359;BME280;13506;50.852;20.632;2023-05-28T08:01:52;98736.47;;;17.86;36.61
21359;BME280;13506;50.852;20.632;2023-05-28T08:04:20;98738.94;;;17.70;36.64
21359;BME280;13506;50.852;20.632;2023-05-28T08:06:49;98728.91;;;17.91;37.27
21359;BME280;13506;50.852;20.632;2023-05-28T08:09:19;98731.91;;;17.78;37.98
21359;BME280;13506;50.852;20.632;2023-05-28T08:11:51;98716.38;;;17.65;37.23
21359;BME280;13506;50.852;20.632;2023-05-28T08:14:22;98728.72;;;17.75;38.90
21359;BME280;13506;50.852;20.632;2023-05-28T08:16:53;98727.06;;;18.01;37.48
21359;BME280;13506;50.852;20.632;2023-05-28T08:19:44;98721.19;;;17.80;36.65
21359;BME280;13506;50.852;20.632;2023-05-28T08:22:32;98730.34;;;18.13;37.08
21359;BME280;13506;50.852;20.632;2023-05-28T08:25:00;98721.47;;;17.77;38.74
21359;BME280;13506;50.852;20.632;2023-05-28T08:27:30;98728.97;;;17.54;37.66
21359;BME280;13506;50.852;20.632;2023-05-28T08:30:00;98729.38;;;17.59;38.50
21359;BME280;13506;50.852;20.632;2023-05-28T08:32:29;98722.66;;;17.64;38.65
21359;BME280;13506;50.852;20.632;2023-05-28T08:34:57;98722.75;;;18.00;38.27
21359;BME280;13506;50.852;20.632;2023-05-28T08:37:26;98721.47;;;18.40;39.75
21359;BME280;13506;50.852;20.632;2023-05-28T08:40:14;98726.22;;;18.91;38.97
21359;BME280;13506;50.852;20.632;2023-05-28T08:42:43;98720.78;;;18.92;38.03
21359;BME280;13506;50.852;20.632;2023-05-28T08:45:14;98722.38;;;19.11;37.25
21359;BME280;13506;50.852;20.632;2023-05-28T08:47:46;98709.13;;;19.11;36.37
21359;BME280;13506;50.852;20.632;2023-05-28T08:50:20;98710.59;;;19.40;37.32
21359;BME280;13506;50.852;20.632;2023-05-28T08:53:15;98725.56;;;18.17;34.43
21359;BME280;13506;50.852;20.632;2023-05-28T08:55:45;98709.63;;;18.27;35.47
21359;BME280;13506;50.852;20.632;2023-05-28T08:58:21;98711.03;;;18.57;35.86
21359;BME280;13506;50.852;20.632;2023-05-28T09:00:52;98714.88;;;18.80;36.15
21359;BME280;13506;50.852;20.632;2023-05-28T09:03:34;98707.03;;;18.97;35.79
21359;BME280;13506;50.852;20.632;2023-05-28T09:06:09;98699.72;;;19.25;36.39
21359;BME280;13506;50.852;20.632;2023-05-28T09:08:39;98701.50;;;18.46;35.51
21359;BME280;13506;50.852;20.632;2023-05-28T09:11:11;98703.09;;;19.01;37.06
21359;BME280;13506;50.852;20.632;2023-05-28T09:13:43;98692.63;;;19.34;36.24
21359;BME280;13506;50.852;20.632;2023-05-28T09:16:19;98703.22;;;19.52;35.57
21359;BME280;13506;50.852;20.632;2023-05-28T09:19:03;98701.06;;;19.55;35.20
21359;BME280;13506;50.852;20.632;2023-05-28T09:21:33;98700.81;;;19.48;33.94
21359;BME280;13506;50.852;20.632;2023-05-28T09:24:04;98687.22;;;19.86;32.66
21359;BME280;13506;50.852;20.632;2023-05-28T09:26:54;98692.16;;;19.73;33.34
21359;BME280;13506;50.852;20.632;2023-05-28T09:29:29;98690.72;;;19.10;32.44
21359;BME280;13506;50.852;20.632;2023-05-28T09:32:00;98692.78;;;18.98;33.18
21359;BME280;13506;50.852;20.632;2023-05-28T09:34:29;98686.84;;;18.96;35.01
21359;BME280;13506;50.852;20.632;2023-05-28T09:37:00;98694.28;;;18.74;33.65
21359;BME280;13506;50.852;20.632;2023-05-28T09:39:29;98683.81;;;18.91;33.83
21359;BME280;13506;50.852;20.632;2023-05-28T09:42:01;98682.16;;;18.10;33.24
21359;BME280;13506;50.852;20.632;2023-05-28T09:44:33;98667.22;;;18.89;33.58
21359;BME280;13506;50.852;20.632;2023-05-28T09:47:12;98679.78;;;18.86;33.04
21359;BME280;13506;50.852;20.632;2023-05-28T09:49:42;98678.94;;;19.12;33.77
21359;BME280;13506;50.852;20.632;2023-05-28T09:52:17;98678.78;;;19.14;34.77
21359;BME280;13506;50.852;20.632;2023-05-28T09:54:50;98667.25;;;19.65;33.77
21359;BME280;13506;50.852;20.632;2023-05-28T09:57:23;98665.47;;;19.74;33.38
21359;BME280;13506;50.852;20.632;2023-05-28T09:59:54;98666.31;;;19.83;32.30
21359;BME280;13506;50.852;20.632;2023-05-28T10:02:31;98663.88;;;18.86;30.87
21359;BME280;13506;50.852;20.632;2023-05-28T10:05:03;98666.31;;;19.06;32.62
21359;BME280;13506;50.852;20.632;2023-05-28T10:07:35;98669.44;;;19.01;33.36
21359;BME280;13506;50.852;20.632;2023-05-28T10:10:06;98667.56;;;19.54;33.48
21359;BME280;13506;50.852;20.632;2023-05-28T10:12:36;98656.56;;;20.00;33.40
21359;BME280;13506;50.852;20.632;2023-05-28T10:15:05;98660.47;;;19.71;33.29
21359;BME280;13506;50.852;20.632;2023-05-28T10:17:35;98660.69;;;20.02;33.71
21359;BME280;13506;50.852;20.632;2023-05-28T10:20:04;98674.13;;;20.01;32.47
21359;BME280;13506;50.852;20.632;2023-05-28T10:22:33;98667.53;;;20.21;31.67
21359;BME280;13506;50.852;20.632;2023-05-28T10:25:02;98666.91;;;20.44;32.60
21359;BME280;13506;50.852;20.632;2023-05-28T10:27:31;98656.09;;;20.62;32.04
21359;BME280;13506;50.852;20.632;2023-05-28T10:30:03;98660.72;;;20.19;33.21
21359;BME280;13506;50.852;20.632;2023-05-28T10:32:39;98660.44;;;20.55;32.19
21359;BME280;13506;50.852;20.632;2023-05-28T10:35:10;98652.41;;;20.63;31.82
21359;BME280;13506;50.852;20.632;2023-05-28T10:37:39;98652.78;;;20.43;31.24
21359;BME280;13506;50.852;20.632;2023-05-28T10:40:09;98653.88;;;19.92;33.58
21359;BME280;13506;50.852;20.632;2023-05-28T10:42:40;98648.78;;;20.31;33.26
21359;BME280;13506;50.852;20.632;2023-05-28T10:45:09;98654.38;;;20.77;33.57
21359;BME280;13506;50.852;20.632;2023-05-28T10:47:41;98648.06;;;20.86;31.69
21359;BME280;13506;50.852;20.632;2023-05-28T10:50:14;98643.31;;;21.29;32.60
21359;BME280;13506;50.852;20.632;2023-05-28T10:52:42;98650.75;;;20.70;33.13
21359;BME280;13506;50.852;20.632;2023-05-28T10:55:12;98651.13;;;20.51;33.10
21359;BME280;13506;50.852;20.632;2023-05-28T10:57:43;98648.22;;;20.93;32.32
21359;BME280;13506;50.852;20.632;2023-05-28T11:00:14;98648.75;;;20.88;33.43
21359;BME280;13506;50.852;20.632;2023-05-28T11:02:54;98646.38;;;21.10;32.05
21359;BME280;13506;50.852;20.632;2023-05-28T11:05:24;98644.22;;;21.05;31.87
21359;BME280;13506;50.852;20.632;2023-05-28T11:07:54;98645.81;;;21.23;30.79
21359;BME280;13506;50.852;20.632;2023-05-28T11:10:22;98649.28;;;20.35;29.98
21359;BME280;13506;50.852;20.632;2023-05-28T11:12:51;98645.56;;;20.85;30.81
21359;BME280;13506;50.852;20.632;2023-05-28T11:15:21;98650.47;;;20.40;33.14
21359;BME280;13506;50.852;20.632;2023-05-28T11:17:49;98653.91;;;20.08;32.94
21359;BME280;13506;50.852;20.632;2023-05-28T11:20:20;98656.91;;;20.62;32.97
21359;BME280;13506;50.852;20.632;2023-05-28T11:22:49;98640.44;;;20.75;33.05
21359;BME280;13506;50.852;20.632;2023-05-28T11:25:17;98633.31;;;20.67;31.70
21359;BME280;13506;50.852;20.632;2023-05-28T11:27:47;98637.75;;;20.83;32.32
21359;BME280;13506;50.852;20.632;2023-05-28T11:30:18;98627.16;;;20.67;32.43
21359;BME280;13506;50.852;20.632;2023-05-28T11:32:49;98632.81;;;20.72;32.63
21359;BME280;13506;50.852;20.632;2023-05-28T11:35:19;98627.38;;;20.41;32.35
21359;BME280;13506;50.852;20.632;2023-05-28T11:37:47;98622.00;;;20.74;33.06
21359;BME280;13506;50.852;20.632;2023-05-28T11:40:15;98623.09;;;21.12;33.19
21359;BME280;13506;50.852;20.632;2023-05-28T11:42:44;98614.59;;;21.08;31.72
21359;BME280;13506;50.852;20.632;2023-05-28T11:45:13;98609.66;;;21.37;31.06
21359;BME280;13506;50.852;20.632;2023-05-28T11:47:41;98609.16;;;21.64;31.86
21359;BME280;13506;50.852;20.632;2023-05-28T11:50:12;98613.44;;;20.95;31.76
21359;BME280;13506;50.852;20.632;2023-05-28T11:52:42;98609.94;;;20.46;31.45
21359;BME280;13506;50.852;20.632;2023-05-28T11:55:11;98605.25;;;20.24;31.12
21359;BME280;13506;50.852;20.632;2023-05-28T11:57:49;98603.28;;;20.51;32.93
21359;BME280;13506;50.852;20.632;2023-05-28T12:00:18;98599.25;;;20.63;32.14
21359;BME280;13506;50.852;20.632;2023-05-28T12:02:47;98588.19;;;20.99;31.71
21359;BME280;13506;50.852;20.632;2023-05-28T12:05:16;98596.72;;;21.34;32.00
21359;BME280;13506;50.852;20.632;2023-05-28T12:07:48;98594.94;;;21.49;32.14
21359;BME280;13506;50.852;20.632;2023-05-28T12:10:18;98607.31;;;21.42;32.65
21359;BME280;13506;50.852;20.632;2023-05-28T12:12:48;98596.19;;;21.38;31.63
21359;BME280;13506;50.852;20.632;2023-05-28T12:15:17;98593.16;;;21.73;30.40
21359;BME280;13506;50.852;20.632;2023-05-28T12:17:45;98599.25;;;21.58;32.24
21359;BME280;13506;50.852;20.632;2023-05-28T12:20:31;98597.56;;;21.57;32.17
21359;BME280;13506;50.852;20.632;2023-05-28T12:23:02;98589.16;;;21.77;31.73
21359;BME280;13506;50.852;20.632;2023-05-28T12:25:44;98592.28;;;22.03;31.90
21359;BME280;13506;50.852;20.632;2023-05-28T12:28:13;98585.66;;;22.37;32.51
21359;BME280;13506;50.852;20.632;2023-05-28T12:30:43;98587.09;;;22.63;31.18
21359;BME280;13506;50.852;20.632;2023-05-28T12:33:12;98601.56;;;22.83;31.40
21359;BME280;13506;50.852;20.632;2023-05-28T12:35:40;98593.72;;;22.67;30.19
21359;BME280;13506;50.852;20.632;2023-05-28T12:38:09;98587.84;;;22.57;29.44
21359;BME280;13506;50.852;20.632;2023-05-28T12:40:37;98600.16;;;22.20;30.70
21359;BME280;13506;50.852;20.632;2023-05-28T12:43:05;98598.47;;;22.19;29.96
21359;BME280;13506;50.852;20.632;2023-05-28T12:45:34;98586.22;;;22.33;29.22
21359;BME280;13506;50.852;20.632;2023-05-28T12:48:01;98581.19;;;22.53;29.16
21359;BME280;13506;50.852;20.632;2023-05-28T12:50:30;98588.69;;;22.34;28.50
21359;BME280;13506;50.852;20.632;2023-05-28T12:52:57;98573.97;;;22.38;27.86
21359;BME280;13506;50.852;20.632;2023-05-28T12:55:27;98590.06;;;21.92;28.89
21359;BME280;13506;50.852;20.632;2023-05-28T12:57:56;98582.09;;;21.61;30.10
21359;BME280;13506;50.852;20.632;2023-05-28T13:00:24;98588.09;;;21.86;31.03
21359;BME280;13506;50.852;20.632;2023-05-28T13:02:53;98575.13;;;22.06;31.15
21359;BME280;13506;50.852;20.632;2023-05-28T13:05:21;98575.22;;;22.13;29.87
21359;BME280;13506;50.852;20.632;2023-05-28T13:07:49;98565.72;;;22.33;30.91
21359;BME280;13506;50.852;20.632;2023-05-28T13:10:18;98567.78;;;21.85;31.35
21359;BME280;13506;50.852;20.632;2023-05-28T13:12:47;98561.09;;;21.89;30.59
21359;BME280;13506;50.852;20.632;2023-05-28T13:15:16;98551.88;;;21.77;32.01